createdAt,value
2022-10-22T00:02:27.832Z,12.54
2022-10-22T00:04:56.881Z,12.54
2022-10-22T00:07:23.870Z,12.39
2022-10-22T00:09:50.289Z,12.49
2022-10-22T00:12:16.998Z,12.38
2022-10-22T00:14:43.547Z,12.37
2022-10-22T00:17:11.490Z,12.31
2022-10-22T00:19:38.733Z,12.22
2022-10-22T00:22:05.783Z,12.40
2022-10-22T00:24:33.905Z,12.34
2022-10-22T00:27:01.165Z,12.32
2022-10-22T00:29:27.775Z,12.32
2022-10-22T00:34:22.513Z,12.30
2022-10-22T00:36:50.186Z,12.19
2022-10-22T00:39:19.045Z,12.29
2022-10-22T00:41:47.275Z,12.32
2022-10-22T00:44:51.276Z,12.21
2022-10-22T00:47:18.802Z,12.30
2022-10-22T00:49:46.830Z,12.12
2022-10-22T00:52:14.262Z,12.04
2022-10-22T00:54:41.261Z,11.90
2022-10-22T00:57:07.714Z,11.75
2022-10-22T00:59:34.430Z,11.79
2022-10-22T01:02:00.870Z,11.85
2022-10-22T01:04:27.350Z,11.76
2022-10-22T01:07:17.677Z,11.81
2022-10-22T01:10:10.485Z,11.85
2022-10-22T01:13:09.399Z,11.79
2022-10-22T01:16:11.060Z,11.74
2022-10-22T01:18:51.855Z,11.71
2022-10-22T01:21:40.545Z,11.81
2022-10-22T01:24:07.110Z,11.75
2022-10-22T01:26:55.007Z,11.88
2022-10-22T01:29:38.628Z,11.73
2022-10-22T01:32:11.607Z,11.86
2022-10-22T01:34:42.121Z,11.85
2022-10-22T01:37:10.459Z,11.86
2022-10-22T01:39:38.479Z,11.87
2022-10-22T01:42:04.962Z,11.86
2022-10-22T01:47:53.558Z,12.08
2022-10-22T01:50:26.395Z,12.02
2022-10-22T01:53:17.845Z,12.13
2022-10-22T01:56:03.555Z,12.19
2022-10-22T01:58:47.967Z,12.20
2022-10-22T02:01:26.444Z,12.16
2022-10-22T02:04:01.708Z,12.02
2022-10-22T02:06:30.620Z,11.89
2022-10-22T02:08:59.343Z,11.96
2022-10-22T02:11:26.434Z,12.15
2022-10-22T02:13:57.841Z,11.96
2022-10-22T02:16:41.909Z,11.94
2022-10-22T02:19:40.504Z,12.09
2022-10-22T02:22:07.505Z,11.95
2022-10-22T02:24:34.190Z,11.87
2022-10-22T02:27:14.243Z,11.93
2022-10-22T02:29:58.545Z,11.80
2022-10-22T02:32:28.517Z,11.90
2022-10-22T02:34:55.886Z,11.81
2022-10-22T02:37:24.441Z,11.83
2022-10-22T02:39:52.263Z,11.88
2022-10-22T02:42:18.802Z,11.89
2022-10-22T02:44:45.199Z,11.99
2022-10-22T02:47:11.601Z,11.89
2022-10-22T02:49:38.002Z,11.91
2022-10-22T02:52:04.518Z,11.82
2022-10-22T02:54:31.006Z,11.79
2022-10-22T02:56:57.415Z,11.68
2022-10-22T02:59:23.838Z,11.91
2022-10-22T03:01:50.308Z,12.08
2022-10-22T03:04:16.818Z,12.07
2022-10-22T03:06:44.249Z,12.00
2022-10-22T03:09:10.928Z,12.05
2022-10-22T03:11:37.344Z,12.13
2022-10-22T03:14:03.831Z,12.12
2022-10-22T03:16:30.295Z,12.13
2022-10-22T03:18:56.719Z,12.05
2022-10-22T03:21:37.764Z,11.99
2022-10-22T03:24:12.316Z,12.10
2022-10-22T03:26:41.003Z,12.15
2022-10-22T03:29:10.214Z,12.10
2022-10-22T03:31:36.674Z,11.85
2022-10-22T03:34:03.082Z,11.93
2022-10-22T03:36:29.794Z,12.01
2022-10-22T03:38:56.211Z,12.04
2022-10-22T03:41:23.155Z,12.08
2022-10-22T03:43:52.863Z,12.14
2022-10-22T03:46:19.928Z,11.93
2022-10-22T03:48:46.807Z,12.03
2022-10-22T03:51:13.245Z,12.20
2022-10-22T03:53:39.682Z,12.22
2022-10-22T03:56:10.376Z,12.21
2022-10-22T03:58:37.847Z,12.16
2022-10-22T04:01:09.705Z,12.22
2022-10-22T04:03:36.780Z,12.19
2022-10-22T04:06:12.685Z,12.09
2022-10-22T04:08:40.422Z,12.04
2022-10-22T04:11:07.230Z,11.86
2022-10-22T04:13:33.675Z,11.85
2022-10-22T04:16:08.133Z,11.97
2022-10-22T04:18:35.802Z,12.08
2022-10-22T04:21:03.575Z,11.92
2022-10-22T04:23:30.118Z,11.85
2022-10-22T04:26:05.662Z,11.74
2022-10-22T04:28:32.509Z,11.93
2022-10-22T04:30:59.033Z,11.82
2022-10-22T04:33:26.542Z,12.03
2022-10-22T04:35:52.957Z,11.98
2022-10-22T04:38:19.398Z,12.01
2022-10-22T04:40:45.827Z,11.90
2022-10-22T04:43:12.274Z,11.96
2022-10-22T04:45:38.738Z,12.01
2022-10-22T04:48:05.630Z,11.87
2022-10-22T04:50:32.165Z,12.04
2022-10-22T04:52:58.610Z,11.85
2022-10-22T04:55:25.015Z,11.84
2022-10-22T04:57:51.596Z,11.76
2022-10-22T05:00:18.126Z,11.57
2022-10-22T05:02:49.154Z,11.79
2022-10-22T05:05:15.881Z,11.84
2022-10-22T05:07:42.610Z,11.87
2022-10-22T05:10:09.821Z,11.83
2022-10-22T05:12:36.307Z,11.77
2022-10-22T05:15:02.699Z,11.74
2022-10-22T05:17:29.081Z,11.89
2022-10-22T05:19:55.498Z,11.84
2022-10-22T05:22:21.951Z,11.91
2022-10-22T05:24:49.107Z,11.90
2022-10-22T05:27:15.556Z,11.70
2022-10-22T05:29:41.984Z,11.82
2022-10-22T05:32:08.455Z,11.89
2022-10-22T05:34:36.164Z,11.90
2022-10-22T05:37:02.591Z,11.87
2022-10-22T05:39:29.141Z,11.82
2022-10-22T05:41:55.601Z,11.78
2022-10-22T05:44:22.042Z,11.73
2022-10-22T05:46:48.543Z,11.81
2022-10-22T05:49:16.177Z,11.80
2022-10-22T05:51:42.918Z,11.82
2022-10-22T05:54:17.517Z,11.85
2022-10-22T05:56:44.125Z,11.89
2022-10-22T05:59:11.324Z,11.57
2022-10-22T06:01:39.579Z,11.80
2022-10-22T06:04:10.100Z,11.86
2022-10-22T06:06:42.779Z,11.89
2022-10-22T06:09:27.721Z,11.93
2022-10-22T06:11:55.855Z,11.87
2022-10-22T06:14:22.867Z,11.73
2022-10-22T06:16:50.273Z,11.69
2022-10-22T06:19:19.347Z,11.71
2022-10-22T06:21:46.527Z,11.80
2022-10-22T06:24:14.253Z,11.78
2022-10-22T06:26:41.170Z,11.78
2022-10-22T06:29:08.420Z,11.80
2022-10-22T06:31:38.118Z,11.69
2022-10-22T06:34:06.669Z,11.80
2022-10-22T06:36:33.651Z,11.77
2022-10-22T06:39:00.219Z,11.90
2022-10-22T06:41:28.833Z,11.67
2022-10-22T06:43:57.277Z,11.66
2022-10-22T06:46:24.946Z,11.63
2022-10-22T06:48:56.820Z,11.59
2022-10-22T06:51:23.693Z,11.59
2022-10-22T06:53:50.205Z,11.65
2022-10-22T06:56:20.120Z,11.47
2022-10-22T06:58:54.402Z,11.52
2022-10-22T07:01:26.787Z,11.25
2022-10-22T07:03:53.796Z,11.39
2022-10-22T07:06:21.583Z,11.33
2022-10-22T07:08:48.044Z,11.47
2022-10-22T07:11:20.763Z,11.68
2022-10-22T07:13:47.842Z,11.70
2022-10-22T07:16:14.806Z,11.52
2022-10-22T07:18:42.227Z,11.74
2022-10-22T07:21:09.839Z,11.65
2022-10-22T07:23:36.884Z,11.70
2022-10-22T07:26:06.633Z,11.76
2022-10-22T07:28:34.782Z,11.88
2022-10-22T07:31:01.207Z,12.01
2022-10-22T07:33:27.967Z,12.10
2022-10-22T07:35:59.577Z,12.32
2022-10-22T07:38:26.268Z,12.53
2022-10-22T07:40:52.680Z,12.38
2022-10-22T07:43:19.068Z,12.22
2022-10-22T07:45:45.502Z,12.24
2022-10-22T07:48:11.937Z,12.22
2022-10-22T07:50:38.481Z,12.30
2022-10-22T07:53:05.020Z,12.41
2022-10-22T07:55:31.452Z,12.45
2022-10-22T07:57:57.878Z,12.50
2022-10-22T08:00:25.322Z,12.37
2022-10-22T08:02:52.285Z,12.37
2022-10-22T08:05:18.937Z,12.59
2022-10-22T08:07:45.455Z,12.58
2022-10-22T08:10:12.014Z,12.71
2022-10-22T08:12:39.248Z,12.85
2022-10-22T08:15:06.777Z,12.99
2022-10-22T08:17:33.237Z,13.07
2022-10-22T08:19:59.669Z,13.05
2022-10-22T08:22:26.085Z,13.13
2022-10-22T08:24:53.438Z,12.94
2022-10-22T08:27:19.988Z,12.89
2022-10-22T08:29:46.651Z,13.02
2022-10-22T08:32:13.558Z,12.94
2022-10-22T08:34:40.186Z,13.00
2022-10-22T08:37:08.450Z,12.99
2022-10-22T08:39:34.847Z,13.16
2022-10-22T08:42:08.448Z,12.93
2022-10-22T08:44:37.878Z,12.97
2022-10-22T08:47:21.373Z,12.82
2022-10-22T08:49:49.093Z,12.97
2022-10-22T08:52:19.942Z,13.04
2022-10-22T08:54:58.750Z,13.11
2022-10-22T08:57:37.115Z,13.23
2022-10-22T09:00:33.958Z,13.41
2022-10-22T09:03:00.597Z,13.62
2022-10-22T09:05:53.052Z,13.68
2022-10-22T09:08:20.642Z,13.93
2022-10-22T09:10:51.828Z,13.85
2022-10-22T09:13:21.282Z,14.08
2022-10-22T09:15:56.000Z,14.08
2022-10-22T09:18:33.054Z,14.08
2022-10-22T09:21:16.497Z,14.12
2022-10-22T09:24:06.606Z,14.35
2022-10-22T09:26:37.911Z,14.27
2022-10-22T09:29:05.205Z,14.17
2022-10-22T09:31:33.116Z,14.12
2022-10-22T09:34:05.835Z,14.12
2022-10-22T09:36:32.821Z,13.98
2022-10-22T09:38:59.612Z,14.01
2022-10-22T09:41:31.757Z,13.99
2022-10-22T09:43:59.257Z,14.04
2022-10-22T09:46:30.258Z,14.13
2022-10-22T09:49:06.620Z,14.17
2022-10-22T09:51:37.900Z,14.26
2022-10-22T09:54:15.933Z,14.37
2022-10-22T09:56:46.800Z,14.55
2022-10-22T09:59:19.053Z,14.65
2022-10-22T10:01:45.827Z,14.57
2022-10-22T10:04:14.741Z,14.23
2022-10-22T10:06:44.374Z,14.41
2022-10-22T10:09:20.323Z,14.35
2022-10-22T10:11:58.902Z,14.42
2022-10-22T10:14:46.724Z,14.29
2022-10-22T10:17:25.559Z,14.44
2022-10-22T10:20:10.042Z,14.44
2022-10-22T10:22:39.517Z,14.57
2022-10-22T10:25:17.886Z,14.42
2022-10-22T10:27:49.162Z,14.39
2022-10-22T10:30:24.072Z,14.29
2022-10-22T10:33:11.008Z,14.61
2022-10-22T10:35:55.198Z,14.51
2022-10-22T10:38:35.453Z,14.58
2022-10-22T10:41:17.634Z,14.46
2022-10-22T10:43:49.944Z,14.50
2022-10-22T10:46:23.197Z,14.45
2022-10-22T10:48:51.552Z,14.29
2022-10-22T10:51:24.089Z,14.66
2022-10-22T10:54:24.566Z,14.83
2022-10-22T10:56:57.647Z,15.10
2022-10-22T10:59:36.920Z,15.43
2022-10-22T11:02:18.649Z,16.05
2022-10-22T11:04:50.842Z,17.01
2022-10-22T11:07:34.883Z,17.53
2022-10-22T11:10:26.022Z,18.07
2022-10-22T11:12:56.076Z,18.14
2022-10-22T11:15:27.401Z,18.10
2022-10-22T11:17:59.433Z,17.99
2022-10-22T11:20:38.897Z,18.78
2022-10-22T11:23:19.439Z,18.99
2022-10-22T11:25:48.258Z,19.73
2022-10-22T11:28:21.192Z,20.00
2022-10-22T11:30:53.586Z,20.86
2022-10-22T11:33:23.514Z,21.67
2022-10-22T11:35:50.726Z,21.97
2022-10-22T11:38:26.482Z,20.58
2022-10-22T11:41:00.695Z,20.52
2022-10-22T11:43:29.094Z,20.49
2022-10-22T11:46:07.958Z,20.61
2022-10-22T11:48:38.368Z,22.13
2022-10-22T11:51:24.935Z,22.99
2022-10-22T11:53:56.547Z,23.59
2022-10-22T11:56:26.816Z,24.79
2022-10-22T11:58:55.035Z,24.70
2022-10-22T12:01:30.246Z,24.06
2022-10-22T12:03:59.549Z,25.07
2022-10-22T12:06:27.953Z,24.90
2022-10-22T12:08:54.489Z,24.71
2022-10-22T12:11:45.588Z,23.16
2022-10-22T12:14:14.892Z,23.28
2022-10-22T12:17:01.990Z,22.86
2022-10-22T12:19:37.233Z,21.52
2022-10-22T12:22:33.821Z,21.43
2022-10-22T12:25:02.292Z,21.29
2022-10-22T12:27:40.474Z,21.25
2022-10-22T12:30:23.677Z,20.82
2022-10-22T12:32:56.221Z,22.04
2022-10-22T12:35:26.192Z,22.47
2022-10-22T12:37:55.973Z,23.53
2022-10-22T12:40:28.278Z,23.79
2022-10-22T12:42:56.521Z,24.68
2022-10-22T12:45:25.734Z,25.34
2022-10-22T12:47:57.388Z,26.70
2022-10-22T12:50:34.132Z,25.55
2022-10-22T12:53:00.677Z,24.85
2022-10-22T12:55:27.695Z,22.91
2022-10-22T12:57:54.290Z,21.50
2022-10-22T13:00:34.541Z,20.98
2022-10-22T13:03:06.472Z,20.27
2022-10-22T13:05:39.114Z,19.33
2022-10-22T13:08:20.970Z,18.95
2022-10-22T13:10:54.860Z,18.43
2022-10-22T13:13:40.836Z,18.01
2022-10-22T13:16:24.139Z,18.12
2022-10-22T13:18:52.575Z,17.67
2022-10-22T13:21:33.331Z,17.55
2022-10-22T13:24:19.467Z,17.57
2022-10-22T13:26:49.843Z,17.52
2022-10-22T13:29:21.665Z,17.39
2022-10-22T13:31:51.203Z,17.32
2022-10-22T13:34:20.831Z,17.15
2022-10-22T13:36:48.489Z,17.24
2022-10-22T13:39:18.477Z,17.36
2022-10-22T13:41:44.951Z,17.28
2022-10-22T13:44:11.354Z,17.45
2022-10-22T13:46:42.526Z,17.23
2022-10-22T13:49:20.754Z,17.21
2022-10-22T13:51:47.589Z,16.95
2022-10-22T13:54:24.755Z,17.18
2022-10-22T13:56:51.206Z,17.18
2022-10-22T13:59:19.865Z,17.33
2022-10-22T14:01:49.477Z,16.96
2022-10-22T14:04:16.036Z,17.09
2022-10-22T14:06:42.726Z,17.05
2022-10-22T14:09:15.127Z,17.10
2022-10-22T14:11:41.789Z,17.15
2022-10-22T14:14:09.209Z,17.12
2022-10-22T14:16:37.588Z,17.22
2022-10-22T14:19:06.642Z,17.06
2022-10-22T14:21:36.673Z,17.10
2022-10-22T14:24:03.290Z,17.19
2022-10-22T14:26:33.067Z,17.18
2022-10-22T14:29:11.702Z,17.08
2022-10-22T14:34:13.807Z,16.86
2022-10-22T14:36:40.467Z,16.96
2022-10-22T14:39:06.930Z,16.66
2022-10-22T14:41:33.698Z,16.81
2022-10-22T14:44:00.179Z,16.72
2022-10-22T14:46:26.674Z,16.72
2022-10-22T14:48:53.116Z,16.63
2022-10-22T14:51:21.078Z,16.65
2022-10-22T14:53:48.226Z,16.71
2022-10-22T14:56:18.792Z,16.78
2022-10-22T14:58:45.638Z,16.72
2022-10-22T15:01:12.570Z,16.67
2022-10-22T15:03:39.109Z,16.50
2022-10-22T15:06:06.175Z,16.46
2022-10-22T15:08:33.179Z,16.54
2022-10-22T15:11:05.146Z,16.63
2022-10-22T15:13:32.900Z,16.47
2022-10-22T15:15:59.776Z,16.41
2022-10-22T15:18:27.089Z,16.36
2022-10-22T15:20:59.722Z,16.34
2022-10-22T15:23:27.012Z,16.28
2022-10-22T15:25:54.171Z,16.30
2022-10-22T15:28:20.624Z,16.19
2022-10-22T15:30:58.581Z,16.21
2022-10-22T15:33:26.048Z,16.16
2022-10-22T15:35:52.502Z,16.16
2022-10-22T15:38:19.750Z,16.11
2022-10-22T15:40:46.201Z,15.98
2022-10-22T15:43:12.843Z,16.03
2022-10-22T15:45:40.067Z,15.97
2022-10-22T15:48:06.686Z,15.94
2022-10-22T15:50:37.788Z,15.87
2022-10-22T15:53:04.371Z,15.85
2022-10-22T15:55:30.779Z,15.81
2022-10-22T15:57:59.317Z,15.81
2022-10-22T16:00:28.451Z,15.75
2022-10-22T16:02:55.152Z,15.74
2022-10-22T16:05:21.638Z,15.67
2022-10-22T16:07:48.373Z,15.61
2022-10-22T16:10:14.822Z,15.45
2022-10-22T16:12:41.560Z,15.49
2022-10-22T16:15:09.403Z,15.43
2022-10-22T16:17:36.083Z,15.36
2022-10-22T16:20:02.609Z,15.41
2022-10-22T16:22:29.072Z,15.27
2022-10-22T16:24:55.507Z,15.37
2022-10-22T16:27:21.952Z,15.35
2022-10-22T16:29:48.906Z,15.31
2022-10-22T16:32:16.454Z,15.22
2022-10-22T16:34:43.004Z,15.27
2022-10-22T16:37:10.363Z,15.23
2022-10-22T16:39:37.044Z,15.14
2022-10-22T16:42:03.896Z,15.11
2022-10-22T16:44:30.316Z,15.04
2022-10-22T16:46:56.771Z,15.11
2022-10-22T16:49:23.297Z,15.06
2022-10-22T16:51:49.770Z,15.09
2022-10-22T16:54:16.293Z,15.09
2022-10-22T16:56:42.825Z,15.00
2022-10-22T16:59:09.246Z,14.94
2022-10-22T17:01:40.321Z,14.87
2022-10-22T17:04:07.930Z,14.76
2022-10-22T17:06:34.358Z,14.74
2022-10-22T17:09:01.001Z,14.86
2022-10-22T17:11:29.953Z,14.65
2022-10-22T17:13:56.373Z,14.71
2022-10-22T17:16:24.508Z,14.58
2022-10-22T17:18:53.094Z,14.40
2022-10-22T17:21:20.139Z,14.44
2022-10-22T17:23:47.437Z,14.44
2022-10-22T17:26:17.547Z,14.39
2022-10-22T17:28:44.204Z,14.22
2022-10-22T17:31:38.171Z,14.27
2022-10-22T17:34:07.225Z,14.27
2022-10-22T17:36:36.111Z,14.27
2022-10-22T17:39:06.536Z,14.28
2022-10-22T17:41:35.770Z,14.29
2022-10-22T17:44:04.680Z,14.33
2022-10-22T17:46:32.589Z,14.33
2022-10-22T17:49:01.940Z,14.10
2022-10-22T17:51:29.871Z,14.14
2022-10-22T17:53:56.433Z,14.17
2022-10-22T17:56:25.559Z,14.12
2022-10-22T17:58:52.533Z,14.24
2022-10-22T18:01:25.363Z,14.17
2022-10-22T18:03:53.543Z,14.14
2022-10-22T18:06:20.098Z,14.09
2022-10-22T18:08:46.635Z,14.22
2022-10-22T18:11:17.762Z,14.26
2022-10-22T18:13:44.242Z,14.28
2022-10-22T18:16:10.711Z,14.27
2022-10-22T18:18:37.293Z,14.11
2022-10-22T18:21:05.094Z,14.41
2022-10-22T18:23:31.637Z,14.32
2022-10-22T18:25:58.070Z,14.47
2022-10-22T18:28:24.515Z,14.19
2022-10-22T18:30:50.991Z,14.44
2022-10-22T18:33:19.044Z,14.34
2022-10-22T18:35:48.514Z,14.21
2022-10-22T18:38:15.021Z,14.32
2022-10-22T18:40:46.692Z,14.32
2022-10-22T18:43:13.042Z,14.35
2022-10-22T18:45:46.312Z,14.24
2022-10-22T18:48:14.248Z,14.30
2022-10-22T18:50:40.755Z,14.27
2022-10-22T18:53:07.255Z,14.28
2022-10-22T18:55:35.135Z,14.19
2022-10-22T18:58:01.561Z,14.20
2022-10-22T19:00:28.010Z,14.20
2022-10-22T19:02:54.919Z,14.19
2022-10-22T19:05:21.643Z,14.06
2022-10-22T19:07:49.999Z,14.06
2022-10-22T19:10:17.751Z,13.93
2022-10-22T19:12:44.218Z,13.96
2022-10-22T19:15:11.052Z,13.88
2022-10-22T19:17:37.593Z,13.80
2022-10-22T19:20:04.630Z,13.88
2022-10-22T19:22:32.215Z,13.68
2022-10-22T19:24:58.890Z,13.80
2022-10-22T19:27:25.424Z,13.72
2022-10-22T19:29:51.830Z,13.64
2022-10-22T19:32:19.959Z,13.63
2022-10-22T19:34:47.124Z,13.51
2022-10-22T19:37:13.691Z,13.58
2022-10-22T19:39:40.072Z,13.59
2022-10-22T19:42:06.529Z,13.33
2022-10-22T19:44:32.932Z,13.51
2022-10-22T19:46:59.387Z,13.66
2022-10-22T19:49:25.899Z,13.64
2022-10-22T19:51:52.370Z,13.53
2022-10-22T19:54:19.589Z,13.45
2022-10-22T19:56:47.186Z,13.45
2022-10-22T19:59:14.874Z,13.51
2022-10-22T20:01:41.432Z,13.48
2022-10-22T20:04:08.006Z,13.37
2022-10-22T20:06:34.490Z,13.52
2022-10-22T20:09:01.019Z,13.39
2022-10-22T20:11:29.588Z,13.40
2022-10-22T20:13:57.143Z,13.59
2022-10-22T20:16:28.465Z,13.66
2022-10-22T20:18:58.730Z,13.75
2022-10-22T20:21:25.118Z,13.72
2022-10-22T20:23:53.103Z,13.54
2022-10-22T20:26:20.867Z,13.61
2022-10-22T20:28:47.258Z,13.73
2022-10-22T20:31:17.419Z,13.64
2022-10-22T20:33:43.879Z,13.65
2022-10-22T20:36:15.743Z,13.67
2022-10-22T20:38:43.219Z,13.56
2022-10-22T20:41:15.527Z,13.39
2022-10-22T20:43:44.556Z,13.58
2022-10-22T20:46:18.636Z,13.56
2022-10-22T20:48:45.113Z,13.62
2022-10-22T20:51:12.769Z,13.46
2022-10-22T20:53:39.229Z,13.41
2022-10-22T20:56:06.661Z,13.51
2022-10-22T20:58:33.345Z,13.68
2022-10-22T21:01:05.587Z,13.61
2022-10-22T21:05:58.645Z,13.51
2022-10-22T21:08:25.080Z,13.57
2022-10-22T21:10:51.516Z,13.53
2022-10-22T21:13:19.428Z,13.45
2022-10-22T21:15:46.028Z,13.55
2022-10-22T21:18:12.577Z,13.57
2022-10-22T21:20:39.888Z,13.62
2022-10-22T21:23:06.840Z,13.54
2022-10-22T21:25:33.757Z,13.63
2022-10-22T21:28:00.424Z,13.59
2022-10-22T21:30:26.874Z,13.65
2022-10-22T21:32:55.876Z,13.68
2022-10-22T21:35:22.306Z,13.42
2022-10-22T21:37:48.677Z,13.54
2022-10-22T21:40:15.365Z,13.57
2022-10-22T21:42:42.340Z,13.63
2022-10-22T21:45:12.431Z,13.43
2022-10-22T21:47:41.582Z,13.50
2022-10-22T21:50:08.599Z,13.45
2022-10-22T21:52:35.036Z,13.48
2022-10-22T21:55:01.457Z,13.58
2022-10-22T21:57:27.899Z,13.59
2022-10-22T21:59:54.334Z,13.64
2022-10-22T22:04:54.761Z,13.61
2022-10-22T22:07:21.949Z,13.59
2022-10-22T22:09:51.217Z,13.49
2022-10-22T22:12:18.615Z,13.55
2022-10-22T22:14:45.035Z,13.44
2022-10-22T22:17:11.576Z,13.44
2022-10-22T22:19:38.888Z,13.39
2022-10-22T22:22:05.369Z,13.27
2022-10-22T22:24:31.791Z,13.22
2022-10-22T22:26:58.200Z,13.18
2022-10-22T22:29:24.618Z,13.19
2022-10-22T22:31:51.160Z,13.27
2022-10-22T22:34:17.686Z,13.14
2022-10-22T22:36:46.992Z,13.13
2022-10-22T22:39:23.385Z,12.91
2022-10-22T22:41:49.951Z,13.03
2022-10-22T22:44:16.614Z,13.06
2022-10-22T22:46:43.219Z,12.93
2022-10-22T22:49:10.136Z,12.85
2022-10-22T22:51:36.548Z,12.94
2022-10-22T22:54:02.978Z,12.92
2022-10-22T22:56:32.020Z,12.78
2022-10-22T22:58:58.690Z,12.85
2022-10-22T23:01:27.515Z,12.81
2022-10-22T23:04:16.169Z,12.74
2022-10-22T23:06:42.685Z,12.80
2022-10-22T23:09:12.134Z,12.74
2022-10-22T23:11:39.422Z,12.76
2022-10-22T23:14:07.725Z,12.79
2022-10-22T23:16:36.993Z,12.70
2022-10-22T23:19:05.459Z,12.78
2022-10-22T23:21:37.658Z,12.70
2022-10-22T23:24:07.547Z,12.58
2022-10-22T23:26:36.993Z,12.63
2022-10-22T23:29:05.890Z,12.45
2022-10-22T23:31:32.582Z,12.48
2022-10-22T23:33:59.145Z,12.39
2022-10-22T23:36:25.618Z,12.41
2022-10-22T23:38:52.200Z,12.28
2022-10-22T23:41:18.602Z,12.34
2022-10-22T23:43:45.018Z,12.31
2022-10-22T23:46:13.667Z,12.19
2022-10-22T23:48:40.828Z,12.35
2022-10-22T23:51:11.515Z,12.31
2022-10-22T23:53:38.298Z,12.16
2022-10-22T23:56:07.249Z,12.16
2022-10-22T23:58:34.380Z,12.18
